Terminal Aerodrome Forecast
Issued by NWS

Home | Current Version | Previous Version | Text Only | Print | Product List | Glossary On
Versions: 1 2 3 4 5 6 7 8 9 10 11 12 13 14 15 16 17
000
FTUS46 KSEW 311700
TAFCLM
TAF
KCLM 311732Z 3118/0118 VRB03KT P6SM VCSH SCT040 BKN100 BKN120
     FM312200 21002KT P6SM SCT025 BKN070
     FM010900 25003KT P6SM OVC025
     FM011200 24004KT P6SM BKN050=

USA.gov is the U.S. government's official web portal to all federal, state and local government web resources and services.